Tiempo atmosférico en la estación meteorológica de Benabarre, Huesca (765 m.)



Fecha
DESCASC
Temp. máxima en grados centígrados (hora)
DESCASC
Temp. mínima en grados centígrados (hora)
DESCASC
Temp. media en grados centígrados
DESCASC
Racha de viento máxima en m/sg (hora)
DESCASC
Velocidad máxima media en intervalos de 10 minutos(hora)
DESCASC
Precipitaciones diarias en mm
DESCASC
Precipitaciones de 00:00 a 06:00 en mm
DESCASC
Precipitaciones de 06:00 a 12:00 en mm
DESCASC
Precipitaciones de 12:00 a 18:00 en mm
DESCASC
Precipitaciones de 18:00 a 24:00 en mm
DESCASC
22-11-2020 12.7 (14:10) -1.2 (07:10) 5.7 3.89 (02:30) 2.78 (02:30) 0 0 0 0 0
21-11-2020 13.6 (15:00) -1.3 (08:40) 6.2 4.72 (07:20) 3.61 (04:30) 0 0 0 0 0
20-11-2020 13.7 (12:20) 0.2 (07:10) 6.9 5.28 (02:40) 4.44 (02:40) 0 0 0 0 0
19-11-2020 15.8 (14:40) 5.2 (00:00) 10.5 5.56 (13:40) 3.89 (13:50) 0 0 0 0 0
18-11-2020 17.1 (14:20) 4.5 (00:00) 10.8 4.17 (14:50) 3.06 (15:00) 0 0 0 0 0
17-11-2020 15.6 (15:10) 4.7 (00:00) 10.2 4.44 (03:50) 3.61 (03:50) 0 0 0 0 0
16-11-2020 15.8 (12:20) 7 (00:00) 11.4 5 (13:30) 3.89 (05:20) 0 0 0 0 0
15-11-2020 15.4 (13:30) 7.1 (00:00) 11.2 6.67 (15:10) 4.17 (15:00) 0 0 0 0 0
14-11-2020 16.1 (13:50) 4 (00:00) 10.1 5.28 (08:10) 3.06 (07:40) 0 0 0 0 0
13-11-2020 15.4 (13:30) 5.2 (00:00) 10.3 4.72 (15:20) 2.78 (19:00) 0 0 0 0 0
12-11-2020 15.2 (14:30) 5.7 (00:00) 10.4 4.17 (10:50) 2.5 (11:00) 0 0 0 0 0
11-11-2020 15.9 (13:40) 4.4 (00:00) 10.1 5 (15:10) 3.33 (15:10) 0 0 0 0 0
10-11-2020 16.1 (13:50) 4.9 (00:00) 10.5 4.72 (13:20) 3.06 (13:00) 0 0 0 0 0
09-11-2020 15.5 (14:50) 5.2 (00:00) 10.3 5.83 (14:30) 3.61 (14:30) 0 0 0 0 0
08-11-2020 15.3 (13:40) 6.3 (00:00) 10.8 4.17 (11:00) 3.06 (20:30) 0 0 0 0 0
07-11-2020 14.7 (06:30) 9.7 (00:00) 12.2 14.44 (10:40) 8.89 (05:50) 28.2 0 20.4 2.6 5.2
06-11-2020 15.1 (14:20) 10.2 (00:00) 12.7 9.72 (04:20) 6.67 (03:40) 5 5 0 0 0
05-11-2020 16.1 (14:20) 6.2 (00:00) 11.2 11.67 (20:20) 7.22 (20:20) 0.4 0 0 0 0.4
04-11-2020 9.3 (00:30) 6.7 (00:00) 8 5 (23:00) 4.17 (22:50) 11.4 6.6 4.4 0.4 0
03-11-2020 13.1 (12:30) 9.2 (00:00) 11.2 5 (13:30) 3.33 (13:30) 3.6 0 0 3 0.6
02-11-2020 21.6 (15:50) 8.6 (00:00) 15.1 5 (13:20) 3.89 (13:20) 0 0 0 0 0
01-11-2020 19.8 (15:10) 6.7 (00:00) 13.2 5 (13:30) 3.61 (16:40) 0 0 0 0 0
31-10-2020 20.1 (16:30) 6.5 (00:00) 13.3 6.67 (12:30) 5 (12:30) 0 0 0 0 0
30-10-2020 20.2 (14:50) 5.6 (00:00) 12.9 4.44 (12:10) 3.33 (03:10) 0 0 0 0 0
29-10-2020 17.1 (14:10) 4.7 (00:00) 10.9 5.28 (14:50) 3.06 (14:30) 0 0 0 0 0
28-10-2020 16.7 (14:30) 4.7 (00:00) 10.7 6.94 (16:30) 4.17 (15:20) 0 0 0 0 0
27-10-2020 13.1 (15:50) 2.1 (00:00) 7.6 7.22 (00:20) 4.44 (02:00) 0 0 0 0 0

Gráficas

Temp. máximas Temp. mínimas Temp. medias Precipitaciones Rachas de viento máximas Velocidades máximas media en intervalos de 10 minutos

Datos horarios

Fecha y hora oficial Temperatura (ºC) Velocidad del viento (km/h) Dirección del viento Racha (km/h) Dirección de racha Precipitación (mm) Presión (hPa) Tendencia (hPa) Humedad (%)
2020-11-25 23:00:00 8.5 14 Este 23 Este 0 -- -- 83
2020-11-25 22:00:00 8.6 14 Este 18 Este 0 -- -- 82
2020-11-25 21:00:00 8.5 12 Este 16 Este 0 -- -- 82
2020-11-25 20:00:00 8.5 10 Este 17 Este 0 -- -- 81
2020-11-25 19:00:00 8.7 10 Este 21 Este 0 -- -- 80
2020-11-25 18:00:00 9.1 15 Este 23 Este 0 -- -- 78
2020-11-25 17:00:00 10.1 16 Este 27 Este 0 -- -- 73
2020-11-25 16:00:00 11.7 22 Este 31 Este 0 -- -- 67
2020-11-25 15:00:00 11.5 10 Sudeste 24 Este 0 -- -- 70
2020-11-25 14:00:00 10.4 16 Este 31 Este 0 -- -- 63
2020-11-25 13:00:00 10.6 19 Este 31 Este 0 -- -- 62
2020-11-25 12:00:00 8.8 16 Nordeste 28 Nordeste 0 -- -- 68
2020-11-25 11:00:00 7.8 17 Este 27 Este 0 -- -- 70
2020-11-25 10:00:00 6.6 11 Este 23 Nordeste 0 -- -- 73
2020-11-25 09:00:00 6.3 8 Este 21 Nordeste 0 -- -- 76
2020-11-25 08:00:00 4.5 8 Este 14 Este 0 -- -- 85
2020-11-25 07:00:00 4.2 10 Este 19 Nordeste 0 -- -- 85
2020-11-25 06:00:00 4.9 8 Nordeste 22 Nordeste 0 -- -- 86
2020-11-25 05:00:00 4.9 18 Nordeste 23 Nordeste 0 -- -- 90
2020-11-25 04:00:00 2.7 5 Este 8 Este 0 -- -- 93
2020-11-25 03:00:00 2.6 4 Sudeste 14 Nordeste 0 -- -- 94
2020-11-25 02:00:00 2 2 Este 8 Norte 0 -- -- 93
2020-11-25 01:00:00 2.9 4 Norte 8 Norte 0 -- -- 91
2020-11-25 00:00:00 2.3 3 Norte 14 Nordeste 0 -- -- 95
2020-11-24 23:00:00 3 3 Norte 9 Norte 0 -- -- 92
2020-11-24 22:00:00 3.6 8 Norte 10 Norte 0 -- -- 91
2020-11-24 21:00:00 4.2 9 Norte 12 Norte 0 -- -- 91
2020-11-24 20:00:00 4.7 7 Norte 12 Norte 0 -- -- 89
2020-11-24 19:00:00 5.1 9 Norte 10 Norte 0 -- -- 87
2020-11-24 18:00:00 7 3 Noroeste 7 Norte 0 -- -- 79
2020-11-24 17:00:00 10 5 Sudeste 12 Sudeste 0 -- -- 70
2020-11-24 16:00:00 11.9 5 Sudeste 13 Sudeste 0 -- -- 58
2020-11-24 15:00:00 12.3 9 Sur 15 Sur 0 -- -- 57
2020-11-24 14:00:00 12.5 7 Sudeste 15 Este 0 -- -- 52
2020-11-24 13:00:00 11.5 8 Sudeste 14 Este 0 -- -- 48
2020-11-24 12:00:00 10.8 7 Sudeste 13 Sudeste 0 -- -- 62
2020-11-24 11:00:00 7.2 2 Sur 6 Sudeste 0 -- -- 70
2020-11-24 10:00:00 4.7 4 Sudeste 6 Norte 0 -- -- 76
2020-11-24 09:00:00 1.1 6 Norte 8 Norte 0 -- -- 87
2020-11-24 08:00:00 1 2 Norte 6 Norte 0 -- -- 88
2020-11-24 07:00:00 0.9 2 Norte 7 Norte 0 -- -- 88
2020-11-24 06:00:00 0.4 5 Norte 8 Norte 0 -- -- 90
2020-11-24 05:00:00 0.8 4 Norte 7 Norte 0 -- -- 89
2020-11-24 04:00:00 1.2 2 Norte 8 Norte 0 -- -- 90
2020-11-24 03:00:00 1.2 3 Norte 9 Norte 0 -- -- 91
2020-11-24 02:00:00 1.4 5 Norte 9 Norte 0 -- -- 90
2020-11-24 01:00:00 1.9 6 Norte 10 Norte 0 -- -- 91
2020-11-24 00:00:00 1.6 6 Norte 10 Norte 0 -- -- 92
2020-11-23 23:00:00 2 8 Norte 10 Norte 0 -- -- 91
2020-11-23 22:00:00 2.4 8 Norte 12 Norte 0 -- -- 90
2020-11-23 21:00:00 2.6 9 Norte 11 Norte 0 -- -- 90
2020-11-23 20:00:00 3.2 6 Norte 10 Norte 0 -- -- 87
2020-11-23 19:00:00 4.4 8 Norte 11 Norte 0 -- -- 84
2020-11-23 18:00:00 7.6 4 Norte 15 Oeste 0 -- -- 72
2020-11-23 17:00:00 10 10 Oeste 15 Noroeste 0 -- -- 64
2020-11-23 16:00:00 12.2 10 Oeste 15 Oeste 0 -- -- 55
2020-11-23 15:00:00 13.6 3 Sudeste 9 Sur 0 -- -- 42
2020-11-23 14:00:00 12.5 4 Sur 12 Oeste 0 -- -- 51
2020-11-23 13:00:00 10.3 6 Oeste 13 Oeste 0 -- -- 61
2020-11-23 12:00:00 9.6 2 Sudoeste 9 Sudeste 0 -- -- 61
2020-11-23 11:00:00 7.2 4 Sudeste 8 Sudeste 0 -- -- 72
2020-11-23 10:00:00 4.4 2 Sudeste 6 Sudeste 0 -- -- 85
2020-11-23 09:00:00 1.3 0 Calma 5 Norte 0 -- -- 97
2020-11-23 08:00:00 -0.1 0 Calma 7 Norte 0 -- -- 95
2020-11-23 07:00:00 0 0 Calma 8 Norte 0 -- -- 95
2020-11-23 06:00:00 0.2 3 Nordeste 6 Norte 0 -- -- 94
2020-11-23 05:00:00 0.4 5 Norte 9 Norte 0 -- -- 94
2020-11-23 04:00:00 0.5 4 Norte 7 Norte 0 -- -- 93
2020-11-23 03:00:00 0.6 5 Norte 9 Norte 0 -- -- 92
2020-11-23 02:00:00 1.5 3 Este 12 Norte 0 -- -- 91
2020-11-23 01:00:00 1.5 9 Norte 10 Norte 0 -- -- 92
2020-11-23 00:00:00 1.8 8 Norte 10 Norte 0 -- -- 92
2020-11-22 23:00:00 2.5 8 Norte 13 Norte 0 -- -- 89
2020-11-22 22:00:00 2.3 9 Norte 12 Norte 0 -- -- 90
2020-11-22 21:00:00 2.9 9 Noroeste 12 Norte 0 -- -- 89
2020-11-22 20:00:00 3.1 10 Norte 12 Norte 0 -- -- 87
2020-11-22 19:00:00 3.9 9 Norte 12 Norte 0 -- -- 83
2020-11-22 18:00:00 7 7 Norte 13 Oeste 0 -- -- 69
2020-11-22 17:00:00 10 9 Oeste 14 Oeste 0 -- -- 59
2020-11-22 16:00:00 12 6 Oeste 12 Oeste 0 -- -- 58
2020-11-22 15:00:00 11.8 8 Oeste 12 Oeste 0 -- -- 57
2020-11-22 14:00:00 12.6 5 Sudeste 10 Sur 0 -- -- 57
2020-11-22 13:00:00 11.3 6 Sur 10 Sur 0 -- -- 59
2020-11-22 12:00:00 9.6 4 Sudeste 12 Este 0 -- -- 63
2020-11-22 11:00:00 7.8 5 Sudeste 9 Este 0 -- -- 65
2020-11-22 10:00:00 4.3 4 Este 7 Este 0 -- -- 74
2020-11-22 09:00:00 0.8 0 Calma 9 Norte 0 -- -- 86
2020-11-22 08:00:00 -0.6 4 Norte 9 Norte 0 -- -- 87
2020-11-22 07:00:00 -1.1 0 Calma 8 Norte 0 -- -- 90
2020-11-22 06:00:00 -0.5 3 Norte 8 Norte 0 -- -- 88
2020-11-22 05:00:00 -0.5 0 Calma 9 Norte 0 -- -- 90
2020-11-22 04:00:00 -0.3 4 Norte 8 Norte 0 -- -- 88
2020-11-22 03:00:00 0.4 5 Norte 14 Norte 0 -- -- 86
2020-11-22 02:00:00 0.3 3 Nordeste 8 Norte 0 -- -- 89
2020-11-22 01:00:00 0.3 2 Norte 9 Norte 0 -- -- 89
2020-11-22 00:00:00 1.2 5 Norte 12 Norte 0 -- -- 86
2020-11-21 23:00:00 1 6 Norte 12 Norte 0 -- -- 86
2020-11-21 22:00:00 1.1 8 Norte 10 Norte 0 -- -- 86
2020-11-21 21:00:00 2.1 5 Norte 12 Norte 0 -- -- 84
2020-11-21 20:00:00 2.7 8 Norte 13 Norte 0 -- -- 83
2020-11-21 19:00:00 3.5 8 Norte 10 Norte 0 -- -- 81
2020-11-21 18:00:00 7.8 3 Sudeste 10 Sudeste 0 -- -- 67
2020-11-21 17:00:00 11.1 4 Sur 13 Noroeste 0 -- -- 53
2020-11-21 16:00:00 11.3 10 Noroeste 15 Oeste 0 -- -- 52
2020-11-21 15:00:00 13.6 4 Sur 12 Sudeste 0 -- -- 40
2020-11-21 14:00:00 12.7 6 Sur 10 Sur 0 -- -- 44
2020-11-21 13:00:00 11 3 Sur 9 Sudeste 0 -- -- 48
2020-11-21 12:00:00 9.5 7 Sudeste 11 Sur 0 -- -- 54
2020-11-21 11:00:00 6.6 7 Sudeste 11 Sudeste 0 -- -- 49
2020-11-21 10:00:00 4.5 3 Sudeste 8 Sudeste 0 -- -- 59
2020-11-21 09:00:00 -0.2 0 Calma 13 Norte 0 -- -- 76
2020-11-21 08:00:00 -1 8 Norte 17 Norte 0 -- -- 74
2020-11-21 07:00:00 -0.4 10 Norte 15 Norte 0 -- -- 72
2020-11-21 06:00:00 -0.4 5 Nordeste 16 Norte 0 -- -- 65
2020-11-21 05:00:00 -0.7 7 Norte 17 Norte 0 -- -- 69
2020-11-21 04:00:00 0 5 Sudeste 13 Norte 0 -- -- 61
2020-11-21 03:00:00 1.2 2 Nordeste 12 Norte 0 -- -- 53
2020-11-21 02:00:00 1.5 9 Norte 13 Norte 0 -- -- 49
2020-11-21 01:00:00 1.9 9 Norte 13 Norte 0 -- -- 58
2020-11-21 00:00:00 3.1 4 Este 12 Norte 0 -- -- 58
2020-11-20 23:00:00 3.7 4 Noroeste 12 Norte 0 -- -- 61
2020-11-20 22:00:00 3.1 9 Nordeste 15 Nordeste 0 -- -- 70
2020-11-20 21:00:00 4 7 Norte 16 Norte 0 -- -- 70
2020-11-20 20:00:00 4 8 Norte 14 Norte 0 -- -- 72
2020-11-20 19:00:00 4.9 11 Norte 14 Norte 0 -- -- 68
2020-11-20 18:00:00 9.3 3 Este 12 Noroeste 0 -- -- 54
2020-11-20 17:00:00 12.5 8 Oeste 19 Oeste 0 -- -- 43
2020-11-20 16:00:00 13 11 Oeste 19 Noroeste 0 -- -- 39
2020-11-20 15:00:00 12.8 9 Oeste 19 Oeste 0 -- -- 39
2020-11-20 14:00:00 12.6 12 Noroeste 18 Noroeste 0 -- -- 35
2020-11-20 13:00:00 12.4 9 Oeste 15 Noroeste 0 -- -- 39
2020-11-20 12:00:00 13.2 3 Sudeste 9 Sur 0 -- -- 20
2020-11-20 11:00:00 11 5 Sudoeste 10 Sudoeste 0 -- -- 48
2020-11-20 10:00:00 8.5 4 Este 13 Este 0 -- -- 50
2020-11-20 09:00:00 3.2 6 Norte 15 Nordeste 0 -- -- 62
2020-11-20 08:00:00 1.1 10 Norte 13 Norte 0 -- -- 84
2020-11-20 07:00:00 0.4 2 Oeste 8 Norte 0 -- -- 96
2020-11-20 06:00:00 1.1 5 Este 9 Norte 0 -- -- 94
2020-11-20 05:00:00 1.5 5 Norte 9 Norte 0 -- -- 94
2020-11-20 04:00:00 2.8 5 Nordeste 13 Norte 0 -- -- 87
2020-11-20 03:00:00 4.6 9 Norte 19 Norte 0 -- -- 75
2020-11-20 02:00:00 4.1 12 Norte 18 Norte 0 -- -- 83
2020-11-20 01:00:00 5 9 Noroeste 12 Norte 0 -- -- 89
2020-11-20 00:00:00 5.2 6 Norte 9 Norte 0 -- -- 90
2020-11-19 23:00:00 6.6 3 Este 14 Norte 0 -- -- 92
2020-11-19 22:00:00 7.7 9 Noroeste 14 Noroeste 0 -- -- 93
2020-11-19 21:00:00 7.8 10 Norte 13 Norte 0 -- -- 92
2020-11-19 20:00:00 8.5 9 Noroeste 14 Norte 0 -- -- 91
2020-11-19 19:00:00 9.7 8 Norte 11 Norte 0 -- -- 86
2020-11-19 18:00:00 11.8 3 Este 13 Oeste 0 -- -- 82
2020-11-19 17:00:00 13.7 9 Noroeste 15 Noroeste 0 -- -- 74
2020-11-19 16:00:00 15.1 9 Noroeste 14 Noroeste 0 -- -- 70
2020-11-19 15:00:00 15.5 9 Noroeste 13 Noroeste 0 -- -- 68
2020-11-19 14:00:00 14.7 12 Oeste 20 Oeste 0 -- -- 71
2020-11-19 13:00:00 15.5 5 Oeste 12 Oeste 0 -- -- 68
2020-11-19 12:00:00 15 4 Sudoeste 10 Noroeste 0 -- -- 70
2020-11-19 11:00:00 12.6 7 Oeste 11 Oeste 0 -- -- 79
2020-11-19 10:00:00 10.5 0 Calma 9 Noroeste 0 -- -- 89
2020-11-19 09:00:00 7.3 9 Noroeste 12 Noroeste 0 -- -- 98
2020-11-19 08:00:00 6 5 Noroeste 11 Norte 0 -- -- 96
2020-11-19 07:00:00 5.9 9 Norte 12 Noroeste 0 -- -- 95
2020-11-19 06:00:00 6.2 8 Norte 13 Norte 0 -- -- 96
2020-11-19 05:00:00 6.1 9 Norte 12 Norte 0 -- -- 95
2020-11-19 04:00:00 6 9 Norte 16 Noroeste 0 -- -- 95
2020-11-19 03:00:00 6.4 9 Noroeste 12 Noroeste 0 -- -- 97
2020-11-19 02:00:00 6.3 5 Norte 10 Norte 0 -- -- 95
2020-11-19 01:00:00 6.7 8 Norte 12 Norte 0 -- -- 95
2020-11-19 00:00:00 6.7 8 Norte 10 Norte 0 -- -- 95
2020-11-18 23:00:00 7.2 4 Norte 12 Norte 0 -- -- 94
2020-11-18 22:00:00 7.2 6 Norte 11 Norte 0 -- -- 94
2020-11-18 21:00:00 7.4 6 Norte 10 Norte 0 -- -- 93
2020-11-18 20:00:00 7.9 7 Norte 11 Norte 0 -- -- 91
2020-11-18 19:00:00 8.6 8 Norte 10 Norte 0 -- -- 89
2020-11-18 18:00:00 11.6 2 Sudeste 5 Sudoeste 0 -- -- 80
2020-11-18 17:00:00 14.5 2 Oeste 10 Noroeste 0 -- -- 70
2020-11-18 16:00:00 15.3 7 Oeste 14 Oeste 0 -- -- 69
2020-11-18 15:00:00 15.9 11 Oeste 15 Oeste 0 -- -- 66
2020-11-18 14:00:00 16.7 8 Sur 13 Sudeste 0 -- -- 64
2020-11-18 13:00:00 15.9 7 Sudeste 11 Sudeste 0 -- -- 64
2020-11-18 12:00:00 15 6 Sudeste 9 Sudoeste 0 -- -- 69
2020-11-18 11:00:00 11.9 5 Noroeste 10 Noroeste 0 -- -- 77
2020-11-18 10:00:00 10.3 4 Oeste 7 Oeste 0 -- -- 86
2020-11-18 09:00:00 6.3 2 Norte 12 Norte 0 -- -- 96
2020-11-18 08:00:00 4.6 9 Norte 12 Norte 0 -- -- 96
2020-11-18 07:00:00 5 5 Norte 8 Norte 0 -- -- 95
2020-11-18 06:00:00 4.9 4 Noroeste 8 Noroeste 0 -- -- 96
2020-11-18 05:00:00 5.3 4 Norte 9 Norte 0 -- -- 95
2020-11-18 04:00:00 5.2 8 Norte 10 Norte 0 -- -- 96
2020-11-18 03:00:00 5.6 8 Norte 12 Norte 0 -- -- 94
2020-11-18 02:00:00 6 8 Norte 11 Norte 0 -- -- 93
2020-11-18 01:00:00 6.1 7 Norte 10 Norte 0 -- -- 95
2020-11-18 00:00:00 6.4 3 Norte 11 Norte 0 -- -- 94
2020-11-17 23:00:00 6.4 8 Norte 10 Noroeste 0 -- -- 95
2020-11-17 22:00:00 6.8 5 Norte 11 Norte 0 -- -- 95
2020-11-17 21:00:00 7 6 Norte 9 Norte 0 -- -- 94
2020-11-17 20:00:00 7.4 6 Norte 10 Norte 0 -- -- 93
2020-11-17 19:00:00 8.9 8 Norte 14 Norte 0 -- -- 91
2020-11-17 18:00:00 10.5 8 Norte 10 Oeste 0 -- -- 84
2020-11-17 17:00:00 14.1 7 Oeste 11 Oeste 0 -- -- 73
2020-11-17 16:00:00 15.4 5 Sur 10 Sur 0 -- -- 71
2020-11-17 15:00:00 15.3 5 Sudeste 12 Este 0 -- -- 74
2020-11-17 14:00:00 13.9 8 Sudeste 13 Este 0 -- -- 80
2020-11-17 13:00:00 12.1 8 Sudeste 12 Sudeste 0 -- -- 86
2020-11-17 12:00:00 8.9 4 Sudeste 10 Sudeste 0 -- -- 98
2020-11-17 11:00:00 7.7 4 Sudeste 9 Sudeste 0 -- -- 99
2020-11-17 10:00:00 6.9 2 Este 8 Norte 0 -- -- 100
2020-11-17 09:00:00 5.1 3 Sudeste 6 Sudeste 0 -- -- 98
2020-11-17 08:00:00 5.1 5 Este 8 Este 0 -- -- 97
2020-11-17 07:00:00 6.4 5 Noroeste 12 Noroeste 0 -- -- 99
2020-11-17 06:00:00 5.2 7 Norte 9 Norte 0 -- -- 98
2020-11-17 05:00:00 5.7 2 Este 8 Nordeste 0 -- -- 96
2020-11-17 04:00:00 5.9 5 Norte 16 Norte 0 -- -- 96
2020-11-17 03:00:00 6.5 3 Noroeste 13 Norte 0 -- -- 97
2020-11-17 02:00:00 6.5 5 Norte 15 Norte 0 -- -- 92
2020-11-17 01:00:00 6.9 12 Norte 15 Norte 0 -- -- 95
2020-11-17 00:00:00 7 2 Este 9 Norte 0 -- -- 96
2020-11-16 23:00:00 7.1 7 Norte 9 Nordeste 0 -- -- 96
2020-11-16 22:00:00 8.1 3 Este 9 Este 0 -- -- 95
2020-11-16 21:00:00 8.4 4 Este 8 Este 0 -- -- 94
2020-11-16 20:00:00 8.2 4 Nordeste 10 Norte 0 -- -- 93
2020-11-16 19:00:00 9.3 4 Nordeste 10 Norte 0 -- -- 92
2020-11-16 18:00:00 11.6 4 Nordeste 10 Este 0 -- -- 86
2020-11-16 17:00:00 13.6 5 Sudeste 15 Este 0 -- -- 81
2020-11-16 16:00:00 14.2 11 Sudeste 18 Sudeste 0 -- -- 77
2020-11-16 15:00:00 14.1 8 Sudeste 18 Sudeste 0 -- -- 78
2020-11-16 14:00:00 14.7 10 Sudeste 18 Sudeste 0 -- -- 79
2020-11-16 13:00:00 15 9 Sur 15 Este 0 -- -- 80
2020-11-16 12:00:00 15.4 11 Sudeste 15 Sudeste 0 -- -- 78
2020-11-16 11:00:00 13.5 6 Oeste 11 Oeste 0 -- -- 87
2020-11-16 10:00:00 12.8 2 Sudoeste 7 Este 0 -- -- 95
2020-11-16 09:00:00 10.2 3 Este 10 Noroeste 0 -- -- 99
2020-11-16 08:00:00 7.9 5 Norte 10 Norte 0 -- -- 98
2020-11-16 07:00:00 9 4 Norte 8 Norte 0 -- -- 98
2020-11-16 06:00:00 10.2 5 Norte 17 Noroeste 0 -- -- 98
2020-11-16 05:00:00 10.9 10 Noroeste 16 Oeste 0 -- -- 97
2020-11-16 04:00:00 10.9 8 Noroeste 12 Noroeste 0 -- -- 96
2020-11-16 03:00:00 11.5 8 Oeste 11 Noroeste 0 -- -- 95
2020-11-16 02:00:00 11.5 6 Norte 11 Noroeste 0 -- -- 96
2020-11-16 01:00:00 12 7 Oeste 10 Noroeste 0 -- -- 95
2020-11-16 00:00:00 12.1 5 Oeste 9 Norte 0 -- -- 96
2020-11-15 23:00:00 12.1 2 Norte 4 Norte 0 -- -- 94
2020-11-15 22:00:00 12.2 4 Noroeste 12 Noroeste 0 -- -- 92
2020-11-15 21:00:00 12 9 Noroeste 13 Oeste 0 -- -- 93
2020-11-15 20:00:00 13 8 Oeste 14 Noroeste 0 -- -- 86
2020-11-15 19:00:00 12.9 9 Noroeste 13 Noroeste 0 -- -- 83
2020-11-15 18:00:00 13.8 10 Noroeste 18 Noroeste 0 -- -- 80
2020-11-15 17:00:00 14.3 10 Noroeste 20 Noroeste 0 -- -- 78
2020-11-15 16:00:00 14.6 10 Noroeste 24 Oeste 0 -- -- 75
2020-11-15 15:00:00 14.8 15 Noroeste 24 Oeste 0 -- -- 72
2020-11-15 14:00:00 15 11 Noroeste 21 Oeste 0 -- -- 72
2020-11-15 13:00:00 14.1 14 Noroeste 20 Noroeste 0 -- -- 75
2020-11-15 12:00:00 13.7 10 Oeste 17 Oeste 0 -- -- 75
2020-11-15 11:00:00 12.2 13 Noroeste 20 Noroeste 0 -- -- 81
2020-11-15 10:00:00 11.9 4 Sudeste 9 Oeste 0 -- -- 89
2020-11-15 09:00:00 8.3 5 Noroeste 10 Norte 0 -- -- 97
2020-11-15 08:00:00 8.2 3 Noroeste 9 Noroeste 0 -- -- 96
2020-11-15 07:00:00 9 4 Noroeste 7 Oeste 0 -- -- 95
2020-11-15 06:00:00 8.9 5 Norte 9 Norte 0 -- -- 94
2020-11-15 05:00:00 9.9 2 Sudeste 5 Norte 0 -- -- 93
2020-11-15 04:00:00 10.1 3 Norte 5 Norte 0 -- -- 94
2020-11-15 03:00:00 9.9 4 Norte 5 Norte 0 -- -- 93
2020-11-15 02:00:00 10 2 Oeste 4 Norte 0 -- -- 94
2020-11-15 01:00:00 9.7 0 Calma 4 Norte 0 -- -- 94
2020-11-15 00:00:00 9.7 0 Calma 6 Norte 0 -- -- 94
2020-11-14 23:00:00 9.4 4 Norte 8 Norte 0 -- -- 93
2020-11-14 22:00:00 10.4 0 Calma 4 Noroeste 0 -- -- 90
2020-11-14 21:00:00 10.4 2 Noroeste 7 Norte 0 -- -- 91
2020-11-14 20:00:00 9.9 5 Norte 12 Norte 0 -- -- 90
2020-11-14 19:00:00 10 9 Norte 11 Norte 0 -- -- 89
2020-11-14 18:00:00 12.1 4 Noroeste 9 Oeste 0 -- -- 83
2020-11-14 17:00:00 13.9 4 Sudoeste 11 Sudoeste 0 -- -- 74
2020-11-14 16:00:00 15 6 Sudeste 12 Este 0 -- -- 70
2020-11-14 15:00:00 15.4 7 Sudeste 12 Sudeste 0 -- -- 67
2020-11-14 14:00:00 16.1 5 Este 14 Sudeste 0 -- -- 63
2020-11-14 13:00:00 15.4 8 Sudeste 14 Este 0 -- -- 63
2020-11-14 12:00:00 14.4 8 Este 17 Sudeste 0 -- -- 62
2020-11-14 11:00:00 12.3 5 Sudeste 13 Este 0 -- -- 69
2020-11-14 10:00:00 10.4 8 Este 15 Este 0 -- -- 73
2020-11-14 09:00:00 7.6 7 Nordeste 19 Este 0 -- -- 83
2020-11-14 08:00:00 6 5 Este 17 Este 0 -- -- 89
2020-11-14 07:00:00 4.3 8 Norte 10 Norte 0 -- -- 93
2020-11-14 06:00:00 5.3 2 Este 12 Norte 0 -- -- 94
2020-11-14 05:00:00 4 10 Norte 16 Nordeste 0 -- -- 94
2020-11-14 04:00:00 4.9 5 Norte 9 Norte 0 -- -- 94
2020-11-14 03:00:00 4.9 6 Norte 10 Norte 0 -- -- 93
2020-11-14 02:00:00 5.1 4 Norte 10 Norte 0 -- -- 93
2020-11-14 01:00:00 5.2 5 Norte 8 Norte 0 -- -- 93
2020-11-14 00:00:00 5.3 6 Norte 10 Norte 0 -- -- 95
2020-11-13 23:00:00 5.5 2 Norte 11 Norte 0 -- -- 93
2020-11-13 22:00:00 5.6 8 Norte 11 Norte 0 -- -- 92
2020-11-13 21:00:00 6.2 3 Norte 9 Este 0 -- -- 91
2020-11-13 20:00:00 7 4 Nordeste 12 Norte 0 -- -- 93
2020-11-13 19:00:00 7.7 10 Norte 14 Norte 0 -- -- 91
2020-11-13 18:00:00 11.4 2 Sudeste 9 Sudoeste 0 -- -- 80
2020-11-13 17:00:00 13.9 4 Sudoeste 12 Sudoeste 0 -- -- 74
2020-11-13 16:00:00 14.6 0 Calma 17 Oeste 0 -- -- 66
2020-11-13 15:00:00 14.9 6 Sudoeste 15 Noroeste 0 -- -- 66
2020-11-13 14:00:00 15.2 8 Sur 13 Sudeste 0 -- -- 58
2020-11-13 13:00:00 14.6 9 Este 15 Sudeste 0 -- -- 65
2020-11-13 12:00:00 12.7 5 Sudeste 11 Sudeste 0 -- -- 69
2020-11-13 11:00:00 11.2 5 Sudeste 10 Sudeste 0 -- -- 74
2020-11-13 10:00:00 7.7 0 Calma 4 Noroeste 0 -- -- 84
2020-11-13 09:00:00 6.3 0 Calma 6 Norte 0 -- -- 89
2020-11-13 08:00:00 5.8 7 Norte 12 Norte 0 -- -- 92
2020-11-13 07:00:00 5.6 7 Norte 11 Norte 0 -- -- 92
2020-11-13 06:00:00 5.7 8 Norte 12 Norte 0 -- -- 92
2020-11-13 05:00:00 7.2 5 Noroeste 8 Norte 0 -- -- 87
2020-11-13 04:00:00 7.1 2 Norte 8 Norte 0 -- -- 89
2020-11-13 03:00:00 7.1 0 Calma 6 Norte 0 -- -- 88
2020-11-13 02:00:00 6.6 4 Nordeste 8 Norte 0 -- -- 89
2020-11-13 01:00:00 6.1 6 Norte 9 Norte 0 -- -- 89
2020-11-13 00:00:00 6 7 Norte 10 Norte 0 -- -- 90
2020-11-12 23:00:00 6.1 7 Norte 10 Norte 0 -- -- 91
2020-11-12 22:00:00 6.6 6 Noroeste 11 Nordeste 0 -- -- 91
2020-11-12 21:00:00 6.9 4 Este 8 Este 0 -- -- 91
2020-11-12 20:00:00 7.9 6 Este 10 Este 0 -- -- 89
2020-11-12 19:00:00 8.7 4 Este 6 Este 0 -- -- 89
2020-11-12 18:00:00 11.2 4 Este 6 Este 0 -- -- 84
2020-11-12 17:00:00 12.9 3 Este 5 Este 0 -- -- 76
2020-11-12 16:00:00 11.9 4 Noroeste 13 Oeste 0 -- -- 81
2020-11-12 15:00:00 12.9 9 Noroeste 13 Oeste 0 -- -- 72
2020-11-12 14:00:00 14.7 4 Sur 9 Sur 0 -- -- 63
2020-11-12 13:00:00 14.2 5 Sur 9 Sudeste 0 -- -- 65
2020-11-12 12:00:00 13 5 Sudeste 12 Sudeste 0 -- -- 71
2020-11-12 11:00:00 12 9 Sudeste 15 Sudeste 0 -- -- 76
2020-11-12 10:00:00 8.5 3 Sudoeste 6 Norte 0 -- -- 89
2020-11-12 09:00:00 6.5 4 Norte 8 Norte 0 -- -- 94
2020-11-12 08:00:00 5.8 6 Norte 9 Noroeste 0 -- -- 95
2020-11-12 07:00:00 6.1 3 Noroeste 7 Norte 0 -- -- 94
2020-11-12 06:00:00 6.7 2 Este 8 Norte 0 -- -- 93
2020-11-12 05:00:00 6.7 4 Norte 9 Norte 0 -- -- 94
2020-11-12 04:00:00 6.4 4 Norte 9 Norte 0 -- -- 94
2020-11-12 03:00:00 6.3 2 Nordeste 8 Norte 0 -- -- 94
2020-11-12 02:00:00 6.6 6 Norte 9 Norte 0 -- -- 93
2020-11-12 01:00:00 6.3 6 Norte 10 Norte 0 -- -- 93
2020-11-12 00:00:00 5.7 8 Norte 10 Norte 0 -- -- 93
2020-11-11 23:00:00 5.4 6 Norte 12 Norte 0 -- -- 92
2020-11-11 22:00:00 5.7 3 Norte 13 Norte 0 -- -- 90
2020-11-11 21:00:00 6.3 9 Norte 11 Norte 0 -- -- 86
2020-11-11 20:00:00 6.8 5 Norte 10 Noroeste 0 -- -- 87
2020-11-11 19:00:00 7.2 9 Norte 12 Norte 0 -- -- 84
2020-11-11 18:00:00 10.6 5 Noroeste 9 Noroeste 0 -- -- 78
2020-11-11 17:00:00 13 7 Noroeste 15 Noroeste 0 -- -- 70
2020-11-11 16:00:00 14.4 9 Oeste 18 Oeste 0 -- -- 64
2020-11-11 15:00:00 14.9 10 Oeste 14 Oeste 0 -- -- 65
2020-11-11 14:00:00 14.7 8 Oeste 14 Sudeste 0 -- -- 66
2020-11-11 13:00:00 15.6 5 Sur 10 Sur 0 -- -- 62
2020-11-11 12:00:00 14.4 4 Sudoeste 9 Sudeste 0 -- -- 66
2020-11-11 11:00:00 12.4 5 Sur 9 Sur 0 -- -- 73
2020-11-11 10:00:00 9.8 4 Sudoeste 8 Sudeste 0 -- -- 86
2020-11-11 09:00:00 6.3 0 Calma 10 Norte 0 -- -- 97
2020-11-11 08:00:00 4.4 8 Norte 10 Norte 0 -- -- 96
2020-11-11 07:00:00 4.9 6 Norte 8 Noroeste 0 -- -- 96
2020-11-11 06:00:00 4.9 5 Norte 11 Norte 0 -- -- 96
2020-11-11 05:00:00 5.2 6 Noroeste 9 Norte 0 -- -- 96
2020-11-11 04:00:00 5.6 2 Norte 8 Norte 0 -- -- 97
2020-11-11 03:00:00 5.5 4 Norte 9 Norte 0 -- -- 97
2020-11-11 02:00:00 5.5 6 Norte 10 Norte 0 -- -- 97
2020-11-11 01:00:00 5.7 6 Norte 9 Norte 0 -- -- 96
2020-11-11 00:00:00 5.8 7 Norte 9 Norte 0 -- -- 96
2020-11-10 23:00:00 6.3 3 Norte 10 Norte 0 -- -- 96
2020-11-10 22:00:00 6.3 7 Norte 10 Norte 0 -- -- 95
2020-11-10 21:00:00 6.7 9 Norte 11 Norte 0 -- -- 95
2020-11-10 20:00:00 7.3 5 Norte 10 Norte 0 -- -- 94
2020-11-10 19:00:00 8.3 6 Norte 9 Norte 0 -- -- 93
2020-11-10 18:00:00 10.4 6 Noroeste 10 Oeste 0 -- -- 88
2020-11-10 17:00:00 13.5 6 Oeste 10 Oeste 0 -- -- 79
2020-11-10 16:00:00 13.1 9 Noroeste 15 Noroeste 0 -- -- 80
2020-11-10 15:00:00 15.2 9 Oeste 17 Sudeste 0 -- -- 72
2020-11-10 14:00:00 15.9 9 Sudeste 17 Este 0 -- -- 66
2020-11-10 13:00:00 15 11 Sur 16 Sur 0 -- -- 65
2020-11-10 12:00:00 14.8 9 Sudeste 15 Este 0 -- -- 71
2020-11-10 11:00:00 12.9 7 Sudeste 10 Este 0 -- -- 77
2020-11-10 10:00:00 10.6 5 Sudeste 8 Sudeste 0 -- -- 88
2020-11-10 09:00:00 7.4 3 Este 5 Sudeste 0 -- -- 99
2020-11-10 08:00:00 5 0 Calma 8 Norte 0 -- -- 98
2020-11-10 07:00:00 5.3 0 Calma 4 Norte 0 -- -- 98
2020-11-10 06:00:00 5.3 2 Norte 7 Norte 0 -- -- 96
2020-11-10 05:00:00 5.9 4 Norte 8 Norte 0 -- -- 96
2020-11-10 04:00:00 5.9 6 Norte 11 Norte 0 -- -- 96
2020-11-10 03:00:00 6 8 Norte 13 Norte 0 -- -- 96
2020-11-10 02:00:00 6.4 7 Norte 11 Norte 0 -- -- 96
2020-11-10 01:00:00 7 4 Norte 12 Norte 0 -- -- 96
2020-11-10 00:00:00 6.7 9 Norte 12 Norte 0 -- -- 95
2020-11-09 23:00:00 7.6 7 Norte 12 Norte 0 -- -- 94
2020-11-09 22:00:00 8 0 Calma 9 Norte 0 -- -- 93
2020-11-09 21:00:00 8.6 4 Norte 8 Norte 0 -- -- 91
2020-11-09 20:00:00 10.5 3 Este 14 Noroeste 0 -- -- 86
2020-11-09 19:00:00 11.6 10 Noroeste 13 Noroeste 0 -- -- 84
2020-11-09 18:00:00 12.2 9 Noroeste 14 Noroeste 0 -- -- 80
2020-11-09 17:00:00 13.4 9 Noroeste 17 Oeste 0 -- -- 72
2020-11-09 16:00:00 14.6 11 Noroeste 18 Oeste 0 -- -- 62
2020-11-09 15:00:00 15.4 11 Oeste 21 Oeste 0 -- -- 61
2020-11-09 14:00:00 15.2 11 Oeste 21 Oeste 0 -- -- 60
2020-11-09 13:00:00 14.5 12 Noroeste 20 Noroeste 0 -- -- 63
2020-11-09 12:00:00 14.4 3 Sudoeste 8 Sudoeste 0 -- -- 73
2020-11-09 11:00:00 12.5 6 Sudeste 9 Sudeste 0 -- -- 73
2020-11-09 10:00:00 10 2 Sudoeste 5 Noroeste 0 -- -- 90
2020-11-09 09:00:00 6.6 4 Norte 10 Noroeste 0 -- -- 98
2020-11-09 08:00:00 5.2 8 Norte 10 Norte 0 -- -- 97
2020-11-09 07:00:00 6 5 Norte 11 Norte 0 -- -- 97
2020-11-09 06:00:00 5.5 6 Norte 10 Norte 0 -- -- 97
2020-11-09 05:00:00 5.4 5 Norte 10 Norte 0 -- -- 97
2020-11-09 04:00:00 5.7 7 Norte 12 Norte 0 -- -- 97
2020-11-09 03:00:00 5.9 8 Norte 12 Norte 0 -- -- 97
2020-11-09 02:00:00 6.1 8 Norte 11 Norte 0 -- -- 96
2020-11-09 01:00:00 6.5 8 Noroeste 14 Norte 0 -- -- 96
2020-11-09 00:00:00 6.6 6 Norte 12 Norte 0 -- -- 96
2020-11-08 23:00:00 6.9 8 Norte 11 Norte 0 -- -- 95
2020-11-08 22:00:00 7.3 8 Norte 10 Norte 0 -- -- 95
2020-11-08 21:00:00 8 5 Norte 14 Norte 0 -- -- 94
2020-11-08 20:00:00 8.2 9 Norte 12 Norte 0 -- -- 94
2020-11-08 19:00:00 9.3 6 Norte 12 Norte 0 -- -- 92
2020-11-08 18:00:00 11.1 4 Norte 7 Norte 0 -- -- 89
2020-11-08 17:00:00 14.1 2 Sudoeste 8 Oeste 0 -- -- 81
2020-11-08 16:00:00 14.7 0 Calma 7 Noroeste 0 -- -- 73
2020-11-08 15:00:00 14.9 0 Calma 9 Sudeste 0 -- -- 75
2020-11-08 14:00:00 15 5 Sur 9 Sudeste 0 -- -- 74
2020-11-08 13:00:00 14.9 4 Este 11 Sudeste 0 -- -- 75
2020-11-08 12:00:00 13.3 6 Sudeste 14 Este 0 -- -- 85
2020-11-08 11:00:00 12.9 10 Este 15 Este 0 -- -- 84
2020-11-08 10:00:00 11.4 4 Sur 6 Sudoeste 0 -- -- 93
2020-11-08 09:00:00 8.1 5 Norte 8 Norte 0 -- -- 99
2020-11-08 08:00:00 6.4 3 Este 10 Norte 0 -- -- 97
2020-11-08 07:00:00 6.7 8 Norte 13 Norte 0 -- -- 97
2020-11-08 06:00:00 7.1 7 Norte 12 Norte 0 -- -- 96
2020-11-08 05:00:00 7.5 9 Norte 12 Norte 0 -- -- 96
2020-11-08 04:00:00 9 8 Norte 10 Norte 0 -- -- 96
2020-11-08 03:00:00 9 3 Norte 9 Nordeste 0 -- -- 96
2020-11-08 02:00:00 9.6 4 Este 12 Este 0 -- -- 96
2020-11-08 01:00:00 10 2 Este 13 Este 0 -- -- 96
2020-11-08 00:00:00 9.7 5 Nordeste 17 Nordeste 0 -- -- 96
2020-11-07 23:00:00 9.8 9 Nordeste 13 Nordeste 0 -- -- 97
2020-11-07 22:00:00 9.9 4 Este 9 Sudeste 0 -- -- 96
2020-11-07 21:00:00 10.1 8 Norte 13 Norte 0.6 -- -- 96
2020-11-07 20:00:00 10.6 8 Norte 24 Sur 4.4 -- -- 95
2020-11-07 19:00:00 12 5 Sudeste 12 Sur 0.2 -- -- 97
2020-11-07 18:00:00 12.2 4 Este 13 Este 0 -- -- 95
2020-11-07 17:00:00 12.4 8 Sudeste 17 Sudeste 0 -- -- 94
2020-11-07 16:00:00 12.8 8 Sudeste 18 Este 0 -- -- 93
2020-11-07 15:00:00 12.4 9 Este 19 Sudeste 0 -- -- 96
2020-11-07 14:00:00 12.1 13 Sudeste 23 Sudeste 0 -- -- 98
2020-11-07 13:00:00 11.8 15 Sudeste 26 Sudeste 2.6 -- -- 97
2020-11-07 12:00:00 12.5 9 Sudeste 27 Sudeste 6.6 -- -- 97
2020-11-07 11:00:00 12.7 31 Sudeste 52 Este 8.8 -- -- 95
2020-11-07 10:00:00 12.4 21 Sudeste 44 Sudeste 4.2 -- -- 95
2020-11-07 09:00:00 12.6 24 Este 41 Sudeste 0.8 -- -- 90
2020-11-07 08:00:00 14.4 23 Este 44 Este 0 -- -- 74
2020-11-07 07:00:00 14.4 24 Este 42 Este 0 -- -- 71
2020-11-07 06:00:00 14.3 30 Este 43 Este 0 -- -- 72
2020-11-07 05:00:00 13.9 24 Este 38 Este 0 -- -- 75
2020-11-07 04:00:00 14 27 Este 41 Este 0 -- -- 77
2020-11-07 03:00:00 13.6 24 Este 38 Este 0 -- -- 81
2020-11-07 02:00:00 14 31 Este 44 Este 0 -- -- 77
2020-11-07 01:00:00 13.6 26 Este 40 Este 0 -- -- 79
2020-11-07 00:00:00 13.2 19 Este 29 Este 0 -- -- 81
2020-11-06 23:00:00 12.9 14 Sudeste 22 Este 0 -- -- 82
2020-11-06 22:00:00 12.8 14 Sudeste 30 Este 0 -- -- 83
2020-11-06 21:00:00 12.5 12 Este 22 Este 0 -- -- 83
2020-11-06 20:00:00 13.2 17 Este 29 Este 0 -- -- 80
2020-11-06 19:00:00 13.7 20 Este 30 Este 0 -- -- 80
2020-11-06 18:00:00 14.1 19 Este 26 Este 0 -- -- 79
2020-11-06 17:00:00 14.5 17 Sudeste 29 Sudeste 0 -- -- 78
2020-11-06 16:00:00 14.5 14 Sudeste 28 Sudeste 0 -- -- 77
2020-11-06 15:00:00 14.8 15 Sudeste 27 Sudeste 0 -- -- 74
2020-11-06 14:00:00 14.5 17 Sudeste 29 Sudeste 0 -- -- 77
2020-11-06 13:00:00 14.6 19 Sudeste 26 Este 0 -- -- 77
2020-11-06 12:00:00 14.2 16 Sudeste 23 Sudeste 0 -- -- 80
2020-11-06 11:00:00 13.4 14 Sudeste 23 Sudeste 0 -- -- 83
2020-11-06 10:00:00 12.3 14 Este 21 Este 0 -- -- 88
2020-11-06 09:00:00 11.4 17 Este 24 Este 0 -- -- 89
2020-11-06 08:00:00 10.5 13 Este 24 Este 0 -- -- 92
2020-11-06 07:00:00 10.7 17 Este 28 Este 0 -- -- 91
2020-11-06 06:00:00 10.4 19 Este 31 Este 0 -- -- 93
2020-11-06 05:00:00 10.2 21 Este 35 Este 0.2 -- -- 93
2020-11-06 04:00:00 10.3 24 Este 34 Este 0.8 -- -- 94
2020-11-06 03:00:00 10.4 22 Este 32 Este 2.4 -- -- 95
2020-11-06 02:00:00 10.4 15 Este 26 Este 1 -- -- 93
2020-11-06 01:00:00 10.7 4 Sudeste 21 Este 0.6 -- -- 90
2020-11-06 00:00:00 11 13 Este 26 Este 0.4 -- -- 87
2020-11-05 23:00:00 11.8 19 Este 26 Este 0 -- -- 77
2020-11-05 22:00:00 11.5 11 Este 28 Este 0 -- -- 81
2020-11-05 21:00:00 11.5 17 Sudeste 42 Sudeste 0 -- -- 83
2020-11-05 20:00:00 11 18 Sudeste 30 Sudeste 0 -- -- 89
2020-11-05 19:00:00 11.8 12 Sudeste 21 Sudeste 0 -- -- 85
2020-11-05 18:00:00 12.4 10 Sudeste 17 Sudeste 0 -- -- 83
2020-11-05 17:00:00 13.7 10 Sudeste 22 Sudeste 0 -- -- 76
2020-11-05 16:00:00 14.9 13 Sudeste 22 Sudeste 0 -- -- 69
2020-11-05 15:00:00 15.7 9 Sudeste 17 Sur 0 -- -- 61
2020-11-05 14:00:00 15.6 5 Sudeste 18 Sudeste 0 -- -- 64
2020-11-05 13:00:00 14.9 12 Sudeste 22 Este 0 -- -- 66
2020-11-05 12:00:00 14.5 11 Sudeste 17 Sudeste 0 -- -- 71
2020-11-05 11:00:00 13.5 8 Sudeste 21 Este 0 -- -- 73
2020-11-05 10:00:00 11.8 12 Este 23 Este 0 -- -- 76
2020-11-05 09:00:00 9.5 16 Nordeste 29 Nordeste 0 -- -- 83
2020-11-05 08:00:00 7.8 12 Nordeste 19 Nordeste 0 -- -- 89
2020-11-05 07:00:00 7.8 11 Nordeste 19 Nordeste 0 -- -- 90
2020-11-05 06:00:00 6.7 4 Sudeste 19 Nordeste 0 -- -- 94
2020-11-05 05:00:00 8 6 Noroeste 8 Norte 0 -- -- 88
2020-11-05 04:00:00 8.1 3 Norte 15 Nordeste 0 -- -- 91
2020-11-05 03:00:00 8.3 8 Nordeste 16 Nordeste 0 -- -- 89
2020-11-05 02:00:00 8.9 6 Este 13 Nordeste 0 -- -- 86
2020-11-05 01:00:00 9.1 8 Nordeste 19 Nordeste 0 -- -- 86
2020-11-05 00:00:00 8.9 4 Este 14 Nordeste 0 -- -- 88
2020-11-04 23:00:00 8.7 13 Nordeste 18 Nordeste 0 -- -- 89
2020-11-04 22:00:00 8 6 Nordeste 11 Nordeste 0 -- -- 95
2020-11-04 21:00:00 7.8 0 Calma 9 Nordeste 0 -- -- 97
2020-11-04 20:00:00 7.6 8 Nordeste 10 Nordeste 0 -- -- 98
2020-11-04 19:00:00 8 2 Noroeste 10 Oeste 0 -- -- 98
2020-11-04 18:00:00 8.4 8 Oeste 11 Noroeste 0 -- -- 97
2020-11-04 17:00:00 9 0 Calma 7 Sudeste 0.4 -- -- 92
2020-11-04 16:00:00 9.2 4 Este 9 Este 0 -- -- 92
2020-11-04 15:00:00 9.1 7 Este 13 Este 0 -- -- 88
2020-11-04 14:00:00 8.8 10 Este 18 Este 0 -- -- 92
2020-11-04 13:00:00 8.8 7 Sudeste 13 Sudeste 0 -- -- 98
2020-11-04 12:00:00 8 9 Sudeste 13 Sudeste 0 -- -- 99
2020-11-04 11:00:00 7.5 8 Sudeste 13 Sudeste 0.2 -- -- 99
2020-11-04 10:00:00 7.1 3 Sudeste 12 Este 0.2 -- -- 99
2020-11-04 09:00:00 6.7 6 Sudeste 11 Sudeste 1.2 -- -- 99
2020-11-04 08:00:00 6.9 4 Sudeste 6 Sudeste 1.2 -- -- 99
2020-11-04 07:00:00 7.2 2 Sur 8 Este 1.6 -- -- 99
2020-11-04 06:00:00 7.3 5 Sur 9 Sur 2.6 -- -- 99
2020-11-04 05:00:00 7.5 6 Sudeste 13 Sudeste 2 -- -- 99
2020-11-04 04:00:00 7.8 5 Sudeste 12 Sudeste 1.4 -- -- 99
2020-11-04 03:00:00 8 7 Sudeste 13 Sudeste 0.6 -- -- 99
2020-11-04 02:00:00 8.3 11 Sudeste 16 Sudeste 0 -- -- 98
2020-11-04 01:00:00 9.1 7 Sudeste 11 Sudeste 0 -- -- 99
2020-11-04 00:00:00 9.2 6 Sudeste 14 Este 0.2 -- -- 98
2020-11-03 23:00:00 9.5 8 Sudeste 12 Sudeste 0.2 -- -- 98
2020-11-03 22:00:00 10.2 7 Sur 15 Sudeste 0.2 -- -- 98
2020-11-03 21:00:00 10.7 9 Este 18 Este 0 -- -- 98
2020-11-03 20:00:00 10.8 5 Sudeste 11 Sudeste 0 -- -- 98
2020-11-03 19:00:00 11.5 3 Sudoeste 13 Sudoeste 0 -- -- 97
2020-11-03 18:00:00 11.8 4 Oeste 7 Noroeste 0.4 -- -- 97
2020-11-03 17:00:00 11.9 6 Oeste 12 Oeste 0.6 -- -- 97
2020-11-03 16:00:00 11.9 7 Noroeste 16 Noroeste 2 -- -- 96
2020-11-03 15:00:00 12.4 5 Sudoeste 9 Sudoeste 0 -- -- 94
2020-11-03 14:00:00 11.7 3 Oeste 18 Noroeste 0 -- -- 94
2020-11-03 13:00:00 12.3 9 Oeste 13 Sur 0 -- -- 89
2020-11-03 12:00:00 13 3 Sudeste 10 Sudeste 0 -- -- 91
2020-11-03 11:00:00 12.4 2 Oeste 9 Oeste 0 -- -- 88
2020-11-03 10:00:00 12.4 5 Sur 8 Sur 0 -- -- 91
2020-11-03 09:00:00 11.3 5 Este 9 Este 0 -- -- 92
2020-11-03 08:00:00 10.8 4 Este 10 Este 0 -- -- 92
2020-11-03 07:00:00 10.5 4 Este 7 Norte 0 -- -- 90
2020-11-03 06:00:00 9.8 2 Nordeste 9 Norte 0 -- -- 92
2020-11-03 05:00:00 9.8 2 Norte 8 Norte 0 -- -- 91
2020-11-03 04:00:00 10.2 4 Norte 8 Norte 0 -- -- 89
2020-11-03 03:00:00 10.5 3 Norte 8 Noroeste 0 -- -- 88
2020-11-03 02:00:00 10.7 5 Norte 8 Norte 0 -- -- 87
2020-11-03 01:00:00 11.1 5 Norte 11 Norte 0 -- -- 86
2020-11-03 00:00:00 11.3 5 Norte 11 Norte 0 -- -- 84
2020-11-02 23:00:00 12 5 Norte 9 Norte 0 -- -- 83
2020-11-02 22:00:00 12.7 6 Norte 11 Norte 0 -- -- 80
2020-11-02 21:00:00 12.2 7 Norte 12 Noroeste 0 -- -- 80
2020-11-02 20:00:00 13.1 7 Norte 11 Norte 0 -- -- 77
2020-11-02 19:00:00 14.4 5 Norte 10 Norte 0 -- -- 71
2020-11-02 18:00:00 18.2 3 Noroeste 14 Oeste 0 -- -- 59
2020-11-02 17:00:00 20.5 10 Noroeste 17 Noroeste 0 -- -- 52
2020-11-02 16:00:00 21.4 9 Noroeste 15 Oeste 0 -- -- 49
2020-11-02 15:00:00 21.3 10 Noroeste 16 Oeste 0 -- -- 49
2020-11-02 14:00:00 20.9 10 Oeste 18 Noroeste 0 -- -- 52
2020-11-02 13:00:00 20.3 10 Noroeste 15 Noroeste 0 -- -- 53
2020-11-02 12:00:00 20.7 5 Sur 10 Sudoeste 0 -- -- 51
2020-11-02 11:00:00 18.9 5 Sudeste 8 Sudeste 0 -- -- 57
2020-11-02 10:00:00 16 2 Sur 8 Este 0 -- -- 65
2020-11-02 09:00:00 12.6 3 Este 9 Norte 0 -- -- 80
2020-11-02 08:00:00 9.2 4 Norte 11 Norte 0 -- -- 90
2020-11-02 07:00:00 9.3 6 Norte 12 Norte 0 -- -- 88
2020-11-02 06:00:00 9.2 7 Norte 10 Norte 0 -- -- 88
2020-11-02 05:00:00 9.2 6 Norte 14 Norte 0 -- -- 88
2020-11-02 04:00:00 9.3 8 Norte 13 Norte 0 -- -- 88
2020-11-02 03:00:00 9.1 9 Norte 11 Norte 0 -- -- 89
2020-11-02 02:00:00 9.6 7 Norte 11 Norte 0 -- -- 87
2020-11-02 01:00:00 10.5 6 Norte 10 Norte 0 -- -- 83
2020-11-02 00:00:00 10.1 4 Norte 10 Norte 0 -- -- 85
2020-11-01 23:00:00 10.3 4 Norte 10 Norte 0 -- -- 84
2020-11-01 22:00:00 10.9 5 Norte 11 Norte 0 -- -- 81
2020-11-01 21:00:00 11.1 9 Norte 12 Norte 0 -- -- 80
2020-11-01 20:00:00 11.6 10 Norte 12 Norte 0 -- -- 78
2020-11-01 19:00:00 13.2 0 Calma 12 Noroeste 0 -- -- 72
2020-11-01 18:00:00 16.8 10 Noroeste 17 Noroeste 0 -- -- 59
2020-11-01 17:00:00 18.1 13 Noroeste 18 Oeste 0 -- -- 55
2020-11-01 16:00:00 19.1 12 Noroeste 17 Oeste 0 -- -- 52
2020-11-01 15:00:00 19.6 8 Noroeste 16 Oeste 0 -- -- 49
2020-11-01 14:00:00 19.3 8 Oeste 18 Oeste 0 -- -- 51
2020-11-01 13:00:00 19.2 11 Noroeste 14 Noroeste 0 -- -- 47
2020-11-01 12:00:00 18 8 Noroeste 15 Oeste 0 -- -- 51
2020-11-01 11:00:00 16.9 4 Sudoeste 8 Sudoeste 0 -- -- 58
2020-11-01 10:00:00 13.9 3 Oeste 7 Sudoeste 0 -- -- 69
2020-11-01 09:00:00 10.5 0 Calma 11 Norte 0 -- -- 82
2020-11-01 08:00:00 7.1 7 Norte 10 Norte 0 -- -- 90
2020-11-01 07:00:00 6.7 8 Norte 10 Norte 0 -- -- 91
2020-11-01 06:00:00 7.2 6 Noroeste 10 Norte 0 -- -- 89
2020-11-01 05:00:00 7.1 8 Norte 12 Norte 0 -- -- 91
2020-11-01 04:00:00 7.5 9 Norte 12 Norte 0 -- -- 89
2020-11-01 03:00:00 7.7 8 Norte 12 Norte 0 -- -- 89
2020-11-01 02:00:00 8.3 6 Norte 9 Norte 0 -- -- 87
2020-11-01 01:00:00 8.3 6 Norte 12 Norte 0 -- -- 86
2020-11-01 00:00:00 8.6 4 Norte 10 Norte 0 -- -- 85
2020-10-31 23:00:00 9.5 3 Nordeste 12 Norte 0 -- -- 82
2020-10-31 22:00:00 9.4 9 Norte 15 Norte 0 -- -- 83
2020-10-31 21:00:00 9.9 7 Norte 13 Norte 0 -- -- 80
2020-10-31 20:00:00 10.6 9 Norte 14 Norte 0 -- -- 76
2020-10-31 19:00:00 12.5 4 Nordeste 13 Noroeste 0 -- -- 70
2020-10-31 18:00:00 16.9 10 Noroeste 18 Oeste 0 -- -- 56
2020-10-31 17:00:00 19.4 8 Noroeste 13 Oeste 0 -- -- 50
2020-10-31 16:00:00 19.9 7 Noroeste 19 Oeste 0 -- -- 48
2020-10-31 15:00:00 19.6 9 Noroeste 23 Oeste 0 -- -- 48
2020-10-31 14:00:00 19.4 15 Noroeste 22 Noroeste 0 -- -- 45
2020-10-31 13:00:00 19 12 Oeste 24 Oeste 0 -- -- 44
2020-10-31 12:00:00 17.5 14 Noroeste 21 Oeste 0 -- -- 45
2020-10-31 11:00:00 15 9 Noroeste 13 Noroeste 0 -- -- 58
2020-10-31 10:00:00 13.3 8 Noroeste 11 Noroeste 0 -- -- 64
2020-10-31 09:00:00 10.2 5 Oeste 12 Noroeste 0 -- -- 82
2020-10-31 08:00:00 6.7 11 Norte 13 Norte 0 -- -- 86
2020-10-31 07:00:00 6.5 11 Norte 14 Norte 0 -- -- 88
2020-10-31 06:00:00 7.1 6 Norte 13 Norte 0 -- -- 86
2020-10-31 05:00:00 7.2 10 Norte 14 Norte 0 -- -- 88
2020-10-31 04:00:00 7.6 9 Noroeste 13 Norte 0 -- -- 87
2020-10-31 03:00:00 8 8 Noroeste 12 Norte 0 -- -- 84
2020-10-31 02:00:00 7.8 10 Norte 13 Norte 0 -- -- 87
2020-10-31 01:00:00 7.9 6 Noroeste 12 Norte 0 -- -- 87
2020-10-31 00:00:00 8 7 Norte 12 Norte 0 -- -- 87
2020-10-30 23:00:00 8.4 10 Norte 14 Norte 0 -- -- 86
2020-10-30 22:00:00 9.3 10 Norte 12 Norte 0 -- -- 82
2020-10-30 21:00:00 9.2 8 Norte 14 Noroeste 0 -- -- 83
2020-10-30 20:00:00 10.1 9 Norte 13 Norte 0 -- -- 81
2020-10-30 19:00:00 11.2 10 Norte 13 Norte 0 -- -- 78
2020-10-30 18:00:00 15.9 6 Norte 12 Noroeste 0 -- -- 61
2020-10-30 17:00:00 18.8 9 Noroeste 13 Oeste 0 -- -- 52
2020-10-30 16:00:00 20 8 Oeste 14 Noroeste 0 -- -- 48
2020-10-30 15:00:00 20.1 8 Oeste 13 Oeste 0 -- -- 51
2020-10-30 14:00:00 19.5 9 Oeste 15 Oeste 0 -- -- 47
2020-10-30 13:00:00 17.6 10 Noroeste 16 Noroeste 0 -- -- 55
2020-10-30 12:00:00 16.1 9 Noroeste 14 Noroeste 0 -- -- 61
2020-10-30 11:00:00 15 5 Sudoeste 12 Oeste 0 -- -- 68
2020-10-30 10:00:00 12.6 7 Oeste 10 Noroeste 0 -- -- 77
2020-10-30 09:00:00 9.9 6 Noroeste 13 Noroeste 0 -- -- 87
2020-10-30 08:00:00 6.4 10 Noroeste 13 Noroeste 0 -- -- 96
2020-10-30 07:00:00 5.9 9 Norte 13 Noroeste 0 -- -- 95
2020-10-30 06:00:00 6.1 9 Norte 15 Norte 0 -- -- 94
2020-10-30 05:00:00 5.9 9 Norte 12 Norte 0 -- -- 95
2020-10-30 04:00:00 6.8 8 Norte 15 Norte 0 -- -- 93
2020-10-30 03:00:00 6.6 10 Norte 13 Norte 0 -- -- 93
2020-10-30 02:00:00 6.9 9 Norte 13 Norte 0 -- -- 92
2020-10-30 01:00:00 7.5 8 Norte 12 Norte 0 -- -- 88
2020-10-30 00:00:00 7.4 9 Norte 14 Norte 0 -- -- 92
2020-10-29 23:00:00 8 8 Norte 11 Norte 0 -- -- 89
2020-10-29 22:00:00 8 8 Norte 13 Norte 0 -- -- 88
2020-10-29 21:00:00 8.1 8 Norte 11 Norte 0 -- -- 86
2020-10-29 20:00:00 9.3 4 Nordeste 13 Norte 0 -- -- 82
2020-10-29 19:00:00 9.9 9 Norte 12 Norte 0 -- -- 80
2020-10-29 18:00:00 14.5 6 Noroeste 12 Oeste 0 -- -- 64
2020-10-29 17:00:00 16.9 8 Oeste 13 Oeste 0 -- -- 57
2020-10-29 16:00:00 16.8 8 Oeste 14 Oeste 0 -- -- 57
2020-10-29 15:00:00 16.9 9 Oeste 19 Oeste 0 -- -- 53
2020-10-29 14:00:00 17 6 Oeste 15 Noroeste 0 -- -- 59
2020-10-29 13:00:00 16.8 8 Oeste 14 Sudoeste 0 -- -- 61
2020-10-29 12:00:00 15.6 4 Sur 11 Sudoeste 0 -- -- 64
2020-10-29 11:00:00 13.9 4 Sudoeste 8 Nordeste 0 -- -- 71
2020-10-29 10:00:00 11.3 4 Sudeste 8 Este 0 -- -- 83
2020-10-29 09:00:00 7.1 3 Norte 6 Norte 0 -- -- 96
2020-10-29 08:00:00 5 4 Norte 9 Norte 0 -- -- 96
2020-10-29 07:00:00 5.3 3 Este 10 Norte 0 -- -- 94
2020-10-29 06:00:00 6.2 4 Noroeste 13 Norte 0 -- -- 91
2020-10-29 05:00:00 5.8 5 Nordeste 12 Norte 0 -- -- 92
2020-10-29 04:00:00 6.1 9 Norte 13 Norte 0 -- -- 93
2020-10-29 03:00:00 6.3 7 Norte 12 Norte 0 -- -- 93
2020-10-29 02:00:00 6.4 3 Nordeste 9 Norte 0 -- -- 91
2020-10-29 01:00:00 7 8 Norte 13 Norte 0 -- -- 91
2020-10-29 00:00:00 6.8 9 Norte 13 Norte 0 -- -- 92
2020-10-28 23:00:00 7.5 3 Nordeste 11 Norte 0 -- -- 88
2020-10-28 22:00:00 8 8 Norte 12 Norte 0 -- -- 87
2020-10-28 21:00:00 8.8 8 Norte 12 Norte 0 -- -- 85
2020-10-28 20:00:00 9.3 10 Norte 11 Norte 0 -- -- 88
2020-10-28 19:00:00 10.4 8 Noroeste 10 Norte 0 -- -- 84
2020-10-28 18:00:00 14.6 7 Oeste 22 Oeste 0 -- -- 69
2020-10-28 17:00:00 16.3 12 Oeste 25 Oeste 0 -- -- 63
2020-10-28 16:00:00 16.6 14 Oeste 23 Oeste 0 -- -- 61
2020-10-28 15:00:00 16.4 11 Noroeste 23 Oeste 0 -- -- 61
2020-10-28 14:00:00 16.1 12 Oeste 20 Oeste 0 -- -- 61
2020-10-28 13:00:00 14.9 13 Oeste 21 Oeste 0 -- -- 65
2020-10-28 12:00:00 14.8 10 Oeste 17 Oeste 0 -- -- 64
2020-10-28 11:00:00 13.8 4 Sur 8 Sur 0 -- -- 68
2020-10-28 10:00:00 11.1 3 Sudoeste 8 Sudeste 0 -- -- 75
2020-10-28 09:00:00 8.4 3 Sudeste 5 Este 0 -- -- 85
2020-10-28 08:00:00 5.2 6 Norte 10 Norte 0 -- -- 95
2020-10-28 07:00:00 4.8 6 Norte 8 Norte 0 -- -- 93
2020-10-28 06:00:00 5 3 Nordeste 11 Norte 0 -- -- 92
2020-10-28 05:00:00 4.8 8 Norte 12 Norte 0 -- -- 91
2020-10-28 04:00:00 5.1 8 Norte 13 Norte 0 -- -- 91
2020-10-28 03:00:00 5.5 7 Norte 11 Norte 0 -- -- 89
2020-10-28 02:00:00 5.7 5 Norte 14 Norte 0 -- -- 89
2020-10-28 01:00:00 5.8 8 Norte 13 Norte 0 -- -- 88
2020-10-28 00:00:00 5.8 9 Norte 12 Norte 0 -- -- 88
2020-10-27 23:00:00 7.5 6 Norte 13 Noroeste 0 -- -- 81
2020-10-27 22:00:00 7.9 0 Calma 8 Norte 0 -- -- 83
2020-10-27 21:00:00 7.9 0 Calma 12 Noroeste 0 -- -- 79
2020-10-27 20:00:00 8 8 Noroeste 13 Norte 0 -- -- 77
2020-10-27 19:00:00 8 8 Noroeste 12 Oeste 0 -- -- 78
2020-10-27 18:00:00 11.1 9 Oeste 13 Oeste 0 -- -- 67
2020-10-27 17:00:00 12.6 11 Oeste 22 Oeste 0 -- -- 60
2020-10-27 16:00:00 13 15 Oeste 24 Oeste 0 -- -- 59
2020-10-27 15:00:00 12.6 9 Oeste 23 Oeste 0 -- -- 62
2020-10-27 14:00:00 12.4 10 Oeste 23 Oeste 0 -- -- 59
2020-10-27 13:00:00 11.4 11 Oeste 21 Sudoeste 0 -- -- 61
2020-10-27 12:00:00 9.9 9 Oeste 17 Oeste 0 -- -- 66
2020-10-27 11:00:00 9.6 9 Oeste 17 Oeste 0 -- -- 71
2020-10-27 10:00:00 7.8 5 Sudoeste 10 Sudeste 0 -- -- 74
2020-10-27 09:00:00 4.5 4 Sudeste 6 Sudeste 0 -- -- 87
2020-10-27 08:00:00 2.6 3 Sur 12 Norte 0 -- -- 92
2020-10-27 07:00:00 2.1 9 Norte 12 Norte 0 -- -- 93
2020-10-27 06:00:00 2.6 5 Norte 10 Norte 0 -- -- 90
2020-10-27 05:00:00 3.3 4 Norte 12 Oeste 0 -- -- 86
2020-10-27 04:00:00 5.4 10 Oeste 21 Oeste 0 -- -- 79
2020-10-27 03:00:00 5.9 12 Noroeste 19 Noroeste 0 -- -- 76
2020-10-27 02:00:00 6.2 16 Oeste 19 Oeste 0 -- -- 74
2020-10-27 01:00:00 6.4 13 Noroeste 26 Oeste 0 -- -- 72
2020-10-27 00:00:00 6.4 15 Noroeste 24 Noroeste 0 -- -- 73